Time;durP1;ratioP1;P1;durP2;ratioP2;P2;SDS_P1;SDS_P2;PMS_P1;PMS_P2;Temp;Humidity;BMP_temperature;BMP_pressure;BME280_temperature;BME280_humidity;BME280_pressure;Samples;Min_cycle;Max_cycle;Signal;HPM_P1;HPM_P2
2021/07/20 00:00:20;;;;;;;0.10;0.10;;;;;;;;;;5047606;28;20033;-78
2021/07/20 00:02:48;;;;;;;0.10;0.10;;;;;;;;;;5049513;28;20467;-78
2021/07/20 00:05:16;;;;;;;0.00;0.00;;;;;;;;;;5049685;28;20106;-78
2021/07/20 00:07:42;;;;;;;0.20;0.20;;;;;;;;;;5047944;28;20037;-78
2021/07/20 00:10:11;;;;;;;0.10;0.10;;;;;;;;;;5049817;28;20021;-79
2021/07/20 00:12:37;;;;;;;0.10;0.10;;;;;;;;;;5051285;28;20383;-78
2021/07/20 00:15:05;;;;;;;0.10;0.10;;;;;;;;;;5052131;28;20027;-78
2021/07/20 00:17:31;;;;;;;0.10;0.10;;;;;;;;;;5053091;28;20068;-78
2021/07/20 00:19:57;;;;;;;0.10;0.10;;;;;;;;;;5053064;28;20105;-78
2021/07/20 00:22:23;;;;;;;0.10;0.10;;;;;;;;;;5052910;28;20036;-78
2021/07/20 00:24:49;;;;;;;0.15;0.15;;;;;;;;;;5051920;28;20029;-77
2021/07/20 00:27:15;;;;;;;0.10;0.10;;;;;;;;;;5052740;28;20053;-77
2021/07/20 00:29:42;;;;;;;0.08;0.08;;;;;;;;;;5051817;28;20017;-78
2021/07/20 00:32:08;;;;;;;0.10;0.10;;;;;;;;;;5051657;28;20064;-78
2021/07/20 00:34:35;;;;;;;0.20;0.20;;;;;;;;;;5051039;28;20139;-78
2021/07/20 00:37:01;;;;;;;0.10;0.10;;;;;;;;;;5051492;28;20483;-78
2021/07/20 00:39:27;;;;;;;0.10;0.10;;;;;;;;;;5052982;28;20029;-78
2021/07/20 00:41:54;;;;;;;0.20;0.20;;;;;;;;;;5051802;28;20032;-79
2021/07/20 00:44:20;;;;;;;0.10;0.10;;;;;;;;;;5051154;28;20029;-79
2021/07/20 00:46:46;;;;;;;0.20;0.20;;;;;;;;;;5052748;28;20032;-79
2021/07/20 00:49:12;;;;;;;0.20;0.20;;;;;;;;;;5052354;28;20116;-78
2021/07/20 00:51:38;;;;;;;0.10;0.10;;;;;;;;;;5052501;28;20041;-79
2021/07/20 00:54:04;;;;;;;0.10;0.10;;;;;;;;;;5050924;28;20094;-78
2021/07/20 00:56:31;;;;;;;0.10;0.10;;;;;;;;;;5052627;28;20482;-78
2021/07/20 00:58:57;;;;;;;0.20;0.20;;;;;;;;;;5052182;28;20206;-78
2021/07/20 01:01:24;;;;;;;0.10;0.10;;;;;;;;;;5051271;28;20025;-78
2021/07/20 01:03:50;;;;;;;0.20;0.20;;;;;;;;;;5052170;28;20060;-78
2021/07/20 01:06:18;;;;;;;0.10;0.10;;;;;;;;;;5052289;28;20056;-78
2021/07/20 01:08:44;;;;;;;0.10;0.10;;;;;;;;;;5052076;28;20131;-78
2021/07/20 01:11:11;;;;;;;0.10;0.10;;;;;;;;;;5052256;28;20475;-79
2021/07/20 01:13:38;;;;;;;0.10;0.10;;;;;;;;;;5052229;28;20380;-79
2021/07/20 01:16:04;;;;;;;0.10;0.10;;;;;;;;;;5051861;28;20315;-79
2021/07/20 01:18:30;;;;;;;0.10;0.10;;;;;;;;;;5052137;28;20060;-79
2021/07/20 01:20:56;;;;;;;0.20;0.20;;;;;;;;;;5052014;28;20025;-78
2021/07/20 01:23:37;;;;;;;0.20;0.20;;;;;;;;;;5049868;28;20082;-78
2021/07/20 01:26:04;;;;;;;0.10;0.10;;;;;;;;;;5051819;28;20021;-79
2021/07/20 01:28:31;;;;;;;0.10;0.10;;;;;;;;;;5051672;28;20090;-78
2021/07/20 01:30:59;;;;;;;0.10;0.10;;;;;;;;;;5051975;28;20036;-78
2021/07/20 01:33:26;;;;;;;0.10;0.10;;;;;;;;;;5052271;28;20032;-79
2021/07/20 01:35:53;;;;;;;;;;;;;;;;;;5051117;28;20025;-79
2021/07/20 01:38:19;;;;;;;0.23;0.23;;;;;;;;;;5051130;28;19904;-79
2021/07/20 01:40:45;;;;;;;0.10;0.10;;;;;;;;;;5051905;28;20028;-79
2021/07/20 01:43:12;;;;;;;0.10;0.10;;;;;;;;;;5051657;28;20032;-78
2021/07/20 01:45:39;;;;;;;0.10;0.10;;;;;;;;;;5051520;28;20371;-79
2021/07/20 01:48:06;;;;;;;0.10;0.10;;;;;;;;;;5050033;28;20025;-79
2021/07/20 01:50:34;;;;;;;0.10;0.10;;;;;;;;;;5051776;28;20029;-79
2021/07/20 01:53:01;;;;;;;0.20;0.20;;;;;;;;;;5049791;28;20033;-79
2021/07/20 01:55:27;;;;;;;0.20;0.20;;;;;;;;;;5051723;28;20455;-79
2021/07/20 01:57:54;;;;;;;0.10;0.10;;;;;;;;;;5051563;28;20480;-79
2021/07/20 02:00:21;;;;;;;0.10;0.10;;;;;;;;;;5051110;28;20037;-79
2021/07/20 02:10:51;;;;;;;0.13;0.13;;;;;;;;;;5051424;28;20175;-79
2021/07/20 02:13:17;;;;;;;0.10;0.10;;;;;;;;;;5051063;28;20437;-79
2021/07/20 02:15:45;;;;;;;0.10;0.10;;;;;;;;;;5051070;28;20463;-79
2021/07/20 02:18:11;;;;;;;0.10;0.10;;;;;;;;;;5049586;28;20039;-79
2021/07/20 02:20:42;;;;;;;0.10;0.10;;;;;;;;;;5049466;28;20044;-78
2021/07/20 02:23:08;;;;;;;0.20;0.20;;;;;;;;;;5050913;28;20328;-79
2021/07/20 02:25:34;;;;;;;0.10;0.10;;;;;;;;;;5049552;28;20369;-79
2021/07/20 02:28:01;;;;;;;0.13;0.13;;;;;;;;;;5050718;28;20290;-79
2021/07/20 02:30:28;;;;;;;0.10;0.10;;;;;;;;;;5049096;28;20044;-79
2021/07/20 02:32:54;;;;;;;0.10;0.10;;;;;;;;;;5050697;28;20128;-78
2021/07/20 02:35:22;;;;;;;0.20;0.20;;;;;;;;;;5049031;28;20071;-79
2021/07/20 02:37:49;;;;;;;0.10;0.10;;;;;;;;;;5050674;28;20044;-78
2021/07/20 02:40:16;;;;;;;0.20;0.20;;;;;;;;;;5050337;28;20068;-78
2021/07/20 02:42:43;;;;;;;0.20;0.20;;;;;;;;;;5049388;28;20383;-78
2021/07/20 02:45:10;;;;;;;0.10;0.10;;;;;;;;;;5050640;28;20036;-78
2021/07/20 02:47:37;;;;;;;0.10;0.10;;;;;;;;;;5049050;28;20029;-78
2021/07/20 02:50:05;;;;;;;0.20;0.20;;;;;;;;;;5050209;28;20037;-79
2021/07/20 02:52:32;;;;;;;0.20;0.20;;;;;;;;;;5048960;28;20364;-78
2021/07/20 02:54:59;;;;;;;0.20;0.20;;;;;;;;;;5049834;28;20100;-78
2021/07/20 02:57:25;;;;;;;0.15;0.15;;;;;;;;;;5050324;28;20067;-78
2021/07/20 02:59:52;;;;;;;0.20;0.20;;;;;;;;;;5050149;28;20037;-78
2021/07/20 03:02:19;;;;;;;0.00;0.00;;;;;;;;;;5050215;28;20063;-78
2021/07/20 03:04:45;;;;;;;0.15;0.15;;;;;;;;;;5050324;28;20073;-78
2021/07/20 03:07:14;;;;;;;0.15;0.15;;;;;;;;;;5050140;28;20033;-78
2021/07/20 03:09:41;;;;;;;0.10;0.10;;;;;;;;;;5048376;28;20033;-78
2021/07/20 03:12:12;;;;;;;0.13;0.13;;;;;;;;;;5048933;28;20468;-78
2021/07/20 03:14:38;;;;;;;0.10;0.10;;;;;;;;;;5048798;28;20344;-79
2021/07/20 03:17:05;;;;;;;0.10;0.10;;;;;;;;;;5032355;28;20139;-78
2021/07/20 03:19:32;;;;;;;0.20;0.20;;;;;;;;;;5049836;28;20067;-78
2021/07/20 03:22:01;;;;;;;0.10;0.10;;;;;;;;;;5048609;28;20024;-79
2021/07/20 03:24:27;;;;;;;0.10;0.10;;;;;;;;;;5049571;28;20150;-79
2021/07/20 03:26:54;;;;;;;0.20;0.10;;;;;;;;;;5048742;28;20024;-79
2021/07/20 03:29:22;;;;;;;0.20;0.20;;;;;;;;;;5048234;28;20055;-78
2021/07/20 03:31:49;;;;;;;0.05;0.05;;;;;;;;;;5048621;28;20076;-79
2021/07/20 03:34:15;;;;;;;0.10;0.10;;;;;;;;;;5047997;28;20029;-78
2021/07/20 03:36:41;;;;;;;0.20;0.20;;;;;;;;;;5050001;28;20483;-79
2021/07/20 03:39:07;;;;;;;0.10;0.10;;;;;;;;;;5049951;28;20025;-79
2021/07/20 03:41:33;;;;;;;0.10;0.10;;;;;;;;;;5048397;28;20084;-79
2021/07/20 03:43:59;;;;;;;0.28;0.28;;;;;;;;;;5049431;28;20027;-79
2021/07/20 03:46:25;;;;;;;0.10;0.10;;;;;;;;;;5050201;28;20028;-78
2021/07/20 03:48:52;;;;;;;0.10;0.10;;;;;;;;;;5052413;28;20040;-78
2021/07/20 03:51:18;;;;;;;0.10;0.10;;;;;;;;;;5053468;28;20127;-78
2021/07/20 03:53:45;;;;;;;0.10;0.10;;;;;;;;;;5053581;28;20025;-78
2021/07/20 03:56:14;;;;;;;0.10;0.10;;;;;;;;;;5052291;28;20252;-81
2021/07/20 03:58:40;;;;;;;0.20;0.20;;;;;;;;;;5053753;28;20059;-81
2021/07/20 04:01:06;;;;;;;0.10;0.10;;;;;;;;;;5052954;28;20037;-82
2021/07/20 04:03:33;;;;;;;0.20;0.20;;;;;;;;;;5053472;28;20053;-81
2021/07/20 04:06:01;;;;;;;0.20;0.20;;;;;;;;;;5052304;28;20017;-81
2021/07/20 04:08:27;;;;;;;0.10;0.10;;;;;;;;;;5053445;28;20107;-81
2021/07/20 04:10:54;;;;;;;0.20;0.20;;;;;;;;;;5051873;28;20505;-80
2021/07/20 04:13:21;;;;;;;0.10;0.10;;;;;;;;;;5053024;28;20029;-80
2021/07/20 04:15:52;;;;;;;0.20;0.20;;;;;;;;;;5053399;28;20044;-81
2021/07/20 04:18:18;;;;;;;0.20;0.20;;;;;;;;;;5053243;28;20029;-81
2021/07/20 04:20:45;;;;;;;0.10;0.10;;;;;;;;;;5052927;28;20126;-80
2021/07/20 04:23:12;;;;;;;0.20;0.20;;;;;;;;;;5051877;28;20131;-82
2021/07/20 04:25:40;;;;;;;0.20;0.20;;;;;;;;;;5052624;28;20036;-82
2021/07/20 04:28:06;;;;;;;0.10;0.10;;;;;;;;;;5053373;28;20028;-82
2021/07/20 04:30:34;;;;;;;0.10;0.10;;;;;;;;;;5053003;28;20045;-82
2021/07/20 04:33:00;;;;;;;0.10;0.10;;;;;;;;;;5053292;28;20123;-82
2021/07/20 04:35:27;;;;;;;0.10;0.10;;;;;;;;;;5053100;28;20036;-82
2021/07/20 04:37:55;;;;;;;0.20;0.20;;;;;;;;;;5052493;28;20020;-82
2021/07/20 04:40:21;;;;;;;0.10;0.10;;;;;;;;;;5052684;28;20575;-82
2021/07/20 04:42:48;;;;;;;0.15;0.15;;;;;;;;;;5053112;28;20096;-82
2021/07/20 04:45:14;;;;;;;0.10;0.10;;;;;;;;;;5051437;28;20140;-81
2021/07/20 04:47:41;;;;;;;0.10;0.10;;;;;;;;;;5051046;28;20025;-82
2021/07/20 04:50:08;;;;;;;0.20;0.20;;;;;;;;;;5051515;28;20559;-82
2021/07/20 04:52:34;;;;;;;;;;;;;;;;;;5051532;28;20049;-82
2021/07/20 04:55:03;;;;;;;0.10;0.10;;;;;;;;;;5051265;28;20003;-82
2021/07/20 04:57:30;;;;;;;0.20;0.20;;;;;;;;;;5052536;28;20502;-82
2021/07/20 04:59:56;;;;;;;0.10;0.10;;;;;;;;;;5052563;28;20036;-81
2021/07/20 05:02:22;;;;;;;0.10;0.10;;;;;;;;;;5051710;28;20112;-81
2021/07/20 05:04:49;;;;;;;0.20;0.20;;;;;;;;;;5052984;28;20064;-82
2021/07/20 05:07:17;;;;;;;0.10;0.10;;;;;;;;;;5052485;28;20099;-80
2021/07/20 05:09:43;;;;;;;0.10;0.10;;;;;;;;;;5051021;28;20435;-82
2021/07/20 05:12:11;;;;;;;0.10;0.10;;;;;;;;;;5051705;28;20689;-82
2021/07/20 05:14:37;;;;;;;0.30;0.30;;;;;;;;;;5052112;28;20071;-82
2021/07/20 05:17:04;;;;;;;0.20;0.20;;;;;;;;;;5051024;28;20029;-82
2021/07/20 05:19:31;;;;;;;0.20;0.20;;;;;;;;;;5050707;28;20063;-82
2021/07/20 05:21:57;;;;;;;0.10;0.10;;;;;;;;;;5051632;28;20044;-81
2021/07/20 05:24:23;;;;;;;0.10;0.10;;;;;;;;;;5050808;28;20180;-82
2021/07/20 05:26:50;;;;;;;0.10;0.10;;;;;;;;;;5051902;28;20368;-81
2021/07/20 05:29:16;;;;;;;;;;;;;;;;;;5050918;28;20391;-82
2021/07/20 05:31:44;;;;;;;0.30;0.30;;;;;;;;;;5050407;28;19919;-82
2021/07/20 05:34:10;;;;;;;0.20;0.20;;;;;;;;;;5050061;28;20051;-81
2021/07/20 05:36:36;;;;;;;0.30;0.30;;;;;;;;;;5051830;28;20017;-80
2021/07/20 05:39:04;;;;;;;0.20;0.20;;;;;;;;;;5051987;28;20375;-81
2021/07/20 05:41:31;;;;;;;0.13;0.13;;;;;;;;;;5050198;28;20037;-82
2021/07/20 05:43:57;;;;;;;0.20;0.20;;;;;;;;;;5051278;28;20032;-82
2021/07/20 05:46:23;;;;;;;0.20;0.20;;;;;;;;;;5051697;28;20031;-82
2021/07/20 05:48:50;;;;;;;0.10;0.10;;;;;;;;;;5051722;28;20379;-82
2021/07/20 05:51:16;;;;;;;0.30;0.30;;;;;;;;;;5051237;28;20045;-81
2021/07/20 05:53:42;;;;;;;0.20;0.20;;;;;;;;;;5051550;28;20819;-82
2021/07/20 05:56:08;;;;;;;0.20;0.20;;;;;;;;;;5051448;28;20039;-82
2021/07/20 05:58:36;;;;;;;0.10;0.10;;;;;;;;;;5051473;28;20453;-82
2021/07/20 06:01:03;;;;;;;0.10;0.10;;;;;;;;;;5050092;28;20024;-82
2021/07/20 06:03:32;;;;;;;0.10;0.10;;;;;;;;;;5051109;28;20033;-82
2021/07/20 06:05:58;;;;;;;0.22;0.22;;;;;;;;;;5049459;28;20337;-81
2021/07/20 06:08:27;;;;;;;0.10;0.10;;;;;;;;;;5051399;28;20071;-81
2021/07/20 06:10:58;;;;;;;0.10;0.10;;;;;;;;;;5050681;28;20365;-82
2021/07/20 06:13:25;;;;;;;0.30;0.30;;;;;;;;;;5050603;28;20045;-82
2021/07/20 06:15:52;;;;;;;0.10;0.10;;;;;;;;;;5051084;28;20398;-82
2021/07/20 06:18:18;;;;;;;0.15;0.15;;;;;;;;;;5050911;28;20087;-81
2021/07/20 06:20:54;;;;;;;0.10;0.10;;;;;;;;;;5049829;28;20025;-82
2021/07/20 06:23:20;;;;;;;0.20;0.20;;;;;;;;;;5050889;28;20060;-82
2021/07/20 06:25:47;;;;;;;0.20;0.20;;;;;;;;;;5051025;28;20029;-80
2021/07/20 06:28:15;;;;;;;0.22;0.20;;;;;;;;;;5050636;28;20104;-82
2021/07/20 06:30:41;;;;;;;0.30;0.30;;;;;;;;;;5049564;28;20033;-82
2021/07/20 06:33:07;;;;;;;0.30;0.30;;;;;;;;;;5050625;28;20060;-82
2021/07/20 06:35:34;;;;;;;0.20;0.20;;;;;;;;;;5049680;28;20028;-82
2021/07/20 06:38:02;;;;;;;0.20;0.20;;;;;;;;;;5050754;28;20083;-81
2021/07/20 06:40:28;;;;;;;0.20;0.20;;;;;;;;;;5050312;28;20024;-81
2021/07/20 06:42:56;;;;;;;0.10;0.10;;;;;;;;;;5050404;28;20041;-80
2021/07/20 06:45:22;;;;;;;0.22;0.22;;;;;;;;;;5050566;28;20471;-81
2021/07/20 06:47:48;;;;;;;0.10;0.10;;;;;;;;;;5050789;28;20387;-81
2021/07/20 06:50:17;;;;;;;0.10;0.10;;;;;;;;;;5050466;28;20821;-81
2021/07/20 06:52:43;;;;;;;0.20;0.20;;;;;;;;;;5048308;28;20036;-81
2021/07/20 06:55:09;;;;;;;0.20;0.20;;;;;;;;;;5049475;28;20051;-82
2021/07/20 06:57:37;;;;;;;0.23;0.23;;;;;;;;;;5050380;28;20473;-80
2021/07/20 07:00:04;;;;;;;0.10;0.10;;;;;;;;;;5050234;28;20606;-82
2021/07/20 07:02:31;;;;;;;0.10;0.10;;;;;;;;;;5050201;28;20387;-82
2021/07/20 07:05:03;;;;;;;0.20;0.20;;;;;;;;;;5049859;28;20103;-81
2021/07/20 07:07:30;;;;;;;0.10;0.10;;;;;;;;;;5048487;28;20025;-80
2021/07/20 07:09:57;;;;;;;0.38;0.38;;;;;;;;;;5048749;28;20028;-80
2021/07/20 07:12:24;;;;;;;0.20;0.20;;;;;;;;;;5049853;28;20068;-80
2021/07/20 07:14:51;;;;;;;0.13;0.13;;;;;;;;;;5050156;28;20021;-80
2021/07/20 07:17:17;;;;;;;0.13;0.13;;;;;;;;;;5049941;28;20090;-81
2021/07/20 07:19:46;;;;;;;0.30;0.30;;;;;;;;;;5049841;28;20025;-81
2021/07/20 07:22:13;;;;;;;0.30;0.30;;;;;;;;;;5049449;28;20025;-81
2021/07/20 07:24:39;;;;;;;;;;;;;;;;;;5050207;28;20041;-82
2021/07/20 07:27:05;;;;;;;0.20;0.20;;;;;;;;;;5050330;28;19913;-82
2021/07/20 07:29:31;;;;;;;0.30;0.30;;;;;;;;;;5049573;28;20032;-81
2021/07/20 07:31:57;;;;;;;0.30;0.30;;;;;;;;;;5049739;28;20033;-81
2021/07/20 07:34:23;;;;;;;0.22;0.22;;;;;;;;;;5048351;28;20048;-82
2021/07/20 07:36:51;;;;;;;0.22;0.22;;;;;;;;;;5049957;28;20029;-81
2021/07/20 07:39:19;;;;;;;0.10;0.10;;;;;;;;;;5048436;28;20032;-82
2021/07/20 07:41:46;;;;;;;0.20;0.20;;;;;;;;;;5049557;28;20036;-81
2021/07/20 07:44:12;;;;;;;;;;;;;;;;;;5049980;28;20487;-82
2021/07/20 07:46:40;;;;;;;0.20;0.20;;;;;;;;;;5049782;28;19911;-82
2021/07/20 07:49:08;;;;;;;0.17;0.17;;;;;;;;;;5049867;28;20071;-82
2021/07/20 07:51:34;;;;;;;0.10;0.10;;;;;;;;;;5049265;28;20041;-81
2021/07/20 07:54:00;;;;;;;0.10;0.10;;;;;;;;;;5049568;28;20040;-81
2021/07/20 07:56:26;;;;;;;0.20;0.20;;;;;;;;;;5048349;28;20036;-82
2021/07/20 07:58:52;;;;;;;0.30;0.30;;;;;;;;;;5049768;28;20025;-81
2021/07/20 08:01:19;;;;;;;0.15;0.15;;;;;;;;;;5049146;28;20036;-81
2021/07/20 08:03:46;;;;;;;0.20;0.20;;;;;;;;;;5049346;28;20340;-82
2021/07/20 08:06:20;;;;;;;0.20;0.20;;;;;;;;;;5048324;28;20025;-81
2021/07/20 08:08:46;;;;;;;0.20;0.20;;;;;;;;;;5049579;28;20082;-81
2021/07/20 08:11:13;;;;;;;0.10;0.10;;;;;;;;;;5049643;28;20371;-81
2021/07/20 08:13:40;;;;;;;0.10;0.10;;;;;;;;;;5049200;28;20338;-82
2021/07/20 08:16:07;;;;;;;0.10;0.10;;;;;;;;;;5049502;28;20086;-81
2021/07/20 08:18:34;;;;;;;0.10;0.10;;;;;;;;;;5049511;28;20037;-82
2021/07/20 08:21:05;;;;;;;0.20;0.20;;;;;;;;;;5048172;28;20555;-82
2021/07/20 08:23:32;;;;;;;0.10;0.10;;;;;;;;;;5048647;28;20107;-81
2021/07/20 08:25:59;;;;;;;;;;;;;;;;;;5048353;28;20432;-81
2021/07/20 08:28:28;;;;;;;0.20;0.20;;;;;;;;;;5049431;28;20006;-81
2021/07/20 08:30:56;;;;;;;0.13;0.13;;;;;;;;;;5049223;28;20458;-81
2021/07/20 08:33:23;;;;;;;0.13;0.13;;;;;;;;;;5049737;28;20021;-79
2021/07/20 08:35:53;;;;;;;0.10;0.10;;;;;;;;;;5052864;28;20158;-81
2021/07/20 08:38:19;;;;;;;0.15;0.15;;;;;;;;;;5051464;28;20123;-81
2021/07/20 08:40:46;;;;;;;0.15;0.15;;;;;;;;;;5051654;28;20025;-81
2021/07/20 08:43:31;;;;;;;0.17;0.17;;;;;;;;;;5053071;28;20025;-79
2021/07/20 08:46:20;;;;;;;0.20;0.20;;;;;;;;;;5050848;28;20080;-81
2021/07/20 08:48:49;;;;;;;0.10;0.10;;;;;;;;;;5053130;28;20017;-81
2021/07/20 08:51:37;;;;;;;0.20;0.20;;;;;;;;;;5052628;28;20036;-80
2021/07/20 08:54:08;;;;;;;0.30;0.30;;;;;;;;;;5050997;28;20075;-81
2021/07/20 08:56:39;;;;;;;0.10;0.10;;;;;;;;;;5052598;28;20095;-79
2021/07/20 08:59:07;;;;;;;0.10;0.10;;;;;;;;;;5053001;28;20102;-80
2021/07/20 09:01:36;;;;;;;0.15;0.15;;;;;;;;;;5053303;28;20021;-81
2021/07/20 09:04:07;;;;;;;0.15;0.15;;;;;;;;;;5052396;28;20066;-81
2021/07/20 09:06:35;;;;;;;0.10;0.10;;;;;;;;;;5051089;28;20052;-81
2021/07/20 09:09:14;;;;;;;0.10;0.10;;;;;;;;;;5052616;28;20479;-81
2021/07/20 09:11:53;;;;;;;0.10;0.10;;;;;;;;;;5052544;28;20041;-81
2021/07/20 09:14:36;;;;;;;0.10;0.10;;;;;;;;;;5052389;28;20021;-80
2021/07/20 09:17:22;;;;;;;0.20;0.20;;;;;;;;;;5052345;28;20025;-81
2021/07/20 09:19:56;;;;;;;0.10;0.10;;;;;;;;;;5050940;28;20048;-81
2021/07/20 09:22:25;;;;;;;0.10;0.10;;;;;;;;;;5050909;28;20056;-80
2021/07/20 09:24:50;;;;;;;0.22;0.22;;;;;;;;;;5050534;28;20044;-81
2021/07/20 09:27:23;;;;;;;0.10;0.10;;;;;;;;;;5050678;28;20025;-80
2021/07/20 09:29:52;;;;;;;0.25;0.25;;;;;;;;;;5051994;28;20071;-80
2021/07/20 09:32:39;;;;;;;0.20;0.20;;;;;;;;;;5051515;28;20043;-81
2021/07/20 09:35:08;;;;;;;0.10;0.10;;;;;;;;;;5050357;28;20029;-81
2021/07/20 09:37:48;;;;;;;0.10;0.10;;;;;;;;;;5052004;28;20366;-81
2021/07/20 09:40:29;;;;;;;0.13;0.13;;;;;;;;;;5051777;28;20500;-81
2021/07/20 09:43:10;;;;;;;0.20;0.20;;;;;;;;;;5049999;28;20037;-79
2021/07/20 09:45:40;;;;;;;0.20;0.20;;;;;;;;;;5050708;28;20034;-81
2021/07/20 09:48:42;;;;;;;0.20;0.20;;;;;;;;;;5051586;28;20017;-81
2021/07/20 09:51:19;;;;;;;0.10;0.10;;;;;;;;;;4992681;28;20046;-81
2021/07/20 09:53:54;;;;;;;0.20;0.20;;;;;;;;;;5042682;28;20140;-81
2021/07/20 09:56:35;;;;;;;0.10;0.10;;;;;;;;;;5051531;28;20033;-81
2021/07/20 09:59:17;;;;;;;0.20;0.20;;;;;;;;;;5051573;28;20033;-81
2021/07/20 10:01:46;;;;;;;0.10;0.10;;;;;;;;;;5051672;28;20100;-81
2021/07/20 10:04:14;;;;;;;0.10;0.10;;;;;;;;;;5051196;28;20076;-82
2021/07/20 10:06:40;;;;;;;0.15;0.15;;;;;;;;;;5049508;28;20045;-81
2021/07/20 10:09:10;;;;;;;0.10;0.10;;;;;;;;;;5049914;28;20463;-80
2021/07/20 10:11:50;;;;;;;0.10;0.10;;;;;;;;;;5049689;28;20148;-79
2021/07/20 10:14:23;;;;;;;0.10;0.10;;;;;;;;;;5049420;28;20039;-79
2021/07/20 10:17:02;;;;;;;0.10;0.10;;;;;;;;;;5049810;28;20065;-81
2021/07/20 10:19:34;;;;;;;0.10;0.10;;;;;;;;;;5051125;28;20079;-81
2021/07/20 10:22:00;;;;;;;0.10;0.10;;;;;;;;;;5049585;28;20052;-81
2021/07/20 10:24:28;;;;;;;0.10;0.10;;;;;;;;;;5049509;28;20444;-81
2021/07/20 10:27:04;;;;;;;0.10;0.10;;;;;;;;;;5050805;28;20083;-81
2021/07/20 10:29:42;;;;;;;0.20;0.20;;;;;;;;;;5051020;28;20037;-81
2021/07/20 10:32:26;;;;;;;0.20;0.20;;;;;;;;;;5050451;28;20037;-81
2021/07/20 10:34:58;;;;;;;0.20;0.20;;;;;;;;;;5049443;28;20021;-81
2021/07/20 10:37:26;;;;;;;0.10;0.10;;;;;;;;;;5050565;28;20040;-81
2021/07/20 10:40:06;;;;;;;0.13;0.13;;;;;;;;;;5050900;28;20127;-80
2021/07/20 10:42:35;;;;;;;0.10;0.10;;;;;;;;;;5049078;28;20029;-81
2021/07/20 10:45:09;;;;;;;0.17;0.17;;;;;;;;;;5050582;28;20172;-81
2021/07/20 10:47:47;;;;;;;0.10;0.10;;;;;;;;;;5050469;28;20474;-81
2021/07/20 10:50:15;;;;;;;0.10;0.10;;;;;;;;;;5050583;28;20558;-81
2021/07/20 10:52:52;;;;;;;0.10;0.10;;;;;;;;;;5050423;28;20089;-81
2021/07/20 10:55:21;;;;;;;0.10;0.10;;;;;;;;;;5049831;28;20321;-81
2021/07/20 10:57:52;;;;;;;0.20;0.20;;;;;;;;;;5050412;28;20045;-81
2021/07/20 11:00:18;;;;;;;0.13;0.13;;;;;;;;;;5050597;28;20166;-81
2021/07/20 11:02:53;;;;;;;0.10;0.10;;;;;;;;;;5050477;28;20021;-81
2021/07/20 11:05:20;;;;;;;0.10;0.10;;;;;;;;;;5048884;28;20045;-82
2021/07/20 11:07:49;;;;;;;0.10;0.10;;;;;;;;;;5048124;28;20130;-81
2021/07/20 11:10:24;;;;;;;0.10;0.10;;;;;;;;;;5050280;28;20342;-82
2021/07/20 11:12:56;;;;;;;0.10;0.10;;;;;;;;;;5050318;28;20044;-82
2021/07/20 11:15:22;;;;;;;0.20;0.20;;;;;;;;;;5050239;28;20387;-82
2021/07/20 11:17:48;;;;;;;;;;;;;;;;;;5049018;28;20025;-81
2021/07/20 11:20:16;;;;;;;0.20;0.20;;;;;;;;;;5048436;28;19916;-81
2021/07/20 11:22:42;;;;;;;0.15;0.15;;;;;;;;;;5048833;28;20025;-82
2021/07/20 11:25:09;;;;;;;0.10;0.10;;;;;;;;;;5050077;28;20021;-81
2021/07/20 11:27:39;;;;;;;0.20;0.20;;;;;;;;;;5048394;28;20849;-80
2021/07/20 11:30:08;;;;;;;0.10;0.10;;;;;;;;;;5050161;28;20024;-82
2021/07/20 11:32:34;;;;;;;0.15;0.15;;;;;;;;;;5049579;28;20099;-82
2021/07/20 11:35:02;;;;;;;0.10;0.10;;;;;;;;;;5049929;28;20055;-81
2021/07/20 11:37:31;;;;;;;0.10;0.10;;;;;;;;;;5049699;28;20117;-80
2021/07/20 11:40:02;;;;;;;0.10;0.10;;;;;;;;;;5049865;28;20051;-80
2021/07/20 11:42:48;;;;;;;0.10;0.10;;;;;;;;;;5049980;28;20063;-81
2021/07/20 11:45:14;;;;;;;0.10;0.10;;;;;;;;;;5049834;28;20526;-81
2021/07/20 11:47:47;;;;;;;0.10;0.10;;;;;;;;;;5048139;28;20044;-81
2021/07/20 11:50:22;;;;;;;0.10;0.10;;;;;;;;;;5048641;28;20480;-82
2021/07/20 11:52:48;;;;;;;0.10;0.10;;;;;;;;;;5049870;28;20390;-81
2021/07/20 11:55:38;;;;;;;0.10;0.10;;;;;;;;;;5049871;28;20063;-80
2021/07/20 11:58:33;;;;;;;0.20;0.20;;;;;;;;;;5043857;28;20507;-81
2021/07/20 12:01:06;;;;;;;0.20;0.20;;;;;;;;;;5049207;28;20112;-82
2021/07/20 12:03:41;;;;;;;0.13;0.13;;;;;;;;;;5049535;28;20052;-81
2021/07/20 12:06:21;;;;;;;0.20;0.20;;;;;;;;;;5049613;28;20029;-82
2021/07/20 12:08:56;;;;;;;0.10;0.10;;;;;;;;;;5050550;28;20128;-82
2021/07/20 12:11:25;;;;;;;0.20;0.20;;;;;;;;;;5052226;28;20041;-81
2021/07/20 12:13:51;;;;;;;0.30;0.30;;;;;;;;;;5053525;28;20130;-82
2021/07/20 12:16:18;;;;;;;0.40;0.40;;;;;;;;;;5053358;28;20484;-81
2021/07/20 12:18:52;;;;;;;0.30;0.30;;;;;;;;;;5052798;28;20471;-81
2021/07/20 12:21:20;;;;;;;0.32;0.32;;;;;;;;;;5053564;28;20035;-81
2021/07/20 12:23:46;;;;;;;0.32;0.32;;;;;;;;;;5053597;28;20124;-82
2021/07/20 12:26:12;;;;;;;;;;;;;;;;;;5053314;28;20025;-80
2021/07/20 12:28:42;;;;;;;0.40;0.40;;;;;;;;;;5052983;28;19912;-82
2021/07/20 12:31:08;;;;;;;0.40;0.40;;;;;;;;;;5053090;28;20490;-80
2021/07/20 12:33:34;;;;;;;0.50;0.50;;;;;;;;;;5050853;28;20430;-82
2021/07/20 12:36:00;;;;;;;;;;;;;;;;;;5032370;28;20430;-82
2021/07/20 12:38:26;;;;;;;0.10;0.10;;;;;;;;;;5032696;28;19913;-82
2021/07/20 12:40:52;;;;;;;;;;;;;;;;;;5033594;28;20041;-81
2021/07/20 12:43:18;;;;;;;0.20;0.20;;;;;;;;;;5031951;28;19955;-82
2021/07/20 12:45:44;;;;;;;;;;;;;;;;;;5033291;28;20427;-82
2021/07/20 12:48:23;;;;;;;0.50;0.50;;;;;;;;;;5032531;28;20268;-82
2021/07/20 12:50:50;;;;;;;0.50;0.50;;;;;;;;;;5032998;28;20087;-82
2021/07/20 12:53:18;;;;;;;0.50;0.50;;;;;;;;;;5032826;28;20091;-82
2021/07/20 12:55:46;;;;;;;0.60;0.60;;;;;;;;;;5031264;28;20432;-83
2021/07/20 12:58:13;;;;;;;0.50;0.50;;;;;;;;;;5032474;28;20041;-83
2021/07/20 13:00:40;;;;;;;0.60;0.60;;;;;;;;;;5032672;28;20044;-83
2021/07/20 13:03:10;;;;;;;0.70;0.70;;;;;;;;;;5031074;28;20112;-83
2021/07/20 13:05:37;;;;;;;0.80;0.80;;;;;;;;;;5031295;28;20029;-83
2021/07/20 13:08:03;;;;;;;0.20;0.20;;;;;;;;;;5032210;28;20037;-83
2021/07/20 13:10:30;;;;;;;0.70;0.70;;;;;;;;;;5032379;28;20028;-83
2021/07/20 13:12:59;;;;;;;0.80;0.80;;;;;;;;;;5030970;28;20504;-82
2021/07/20 13:15:25;;;;;;;0.90;0.90;;;;;;;;;;5031379;28;20026;-82
2021/07/20 13:17:55;;;;;;;0.85;0.85;;;;;;;;;;5031984;28;20368;-83
2021/07/20 13:20:22;;;;;;;0.80;0.80;;;;;;;;;;5031071;28;20053;-83
2021/07/20 13:22:48;;;;;;;0.20;0.20;;;;;;;;;;5032266;28;20076;-82
2021/07/20 13:25:15;;;;;;;0.20;0.20;;;;;;;;;;5030811;28;20494;-82
2021/07/20 13:27:43;;;;;;;0.13;0.13;;;;;;;;;;5030488;28;20033;-82
2021/07/20 13:30:10;;;;;;;0.70;0.70;;;;;;;;;;5031955;28;20411;-82
2021/07/20 13:32:36;;;;;;;0.75;0.75;;;;;;;;;;5031962;28;20499;-82
2021/07/20 13:35:07;;;;;;;0.80;0.80;;;;;;;;;;5032041;28;20427;-83
2021/07/20 13:37:36;;;;;;;0.90;0.90;;;;;;;;;;5032062;28;20063;-83
2021/07/20 13:40:07;;;;;;;0.90;0.90;;;;;;;;;;5031667;28;20045;-84
2021/07/20 13:42:33;;;;;;;0.90;0.90;;;;;;;;;;5030614;28;20041;-84
2021/07/20 13:45:04;;;;;;;0.90;0.90;;;;;;;;;;5031576;28;20412;-83
2021/07/20 13:47:33;;;;;;;0.60;0.60;;;;;;;;;;5030571;28;20032;-83
2021/07/20 13:50:01;;;;;;;0.20;0.20;;;;;;;;;;5031450;28;20041;-83
2021/07/20 13:52:27;;;;;;;0.75;0.75;;;;;;;;;;5030470;28;20026;-83
2021/07/20 13:54:56;;;;;;;0.90;0.90;;;;;;;;;;5031727;28;20029;-83
2021/07/20 13:57:22;;;;;;;1.00;1.00;;;;;;;;;;5031298;28;20391;-82
2021/07/20 13:59:51;;;;;;;1.00;1.00;;;;;;;;;;5031444;28;20527;-83
2021/07/20 14:02:18;;;;;;;1.10;1.10;;;;;;;;;;5031463;28;20496;-83
2021/07/20 14:04:44;;;;;;;1.10;1.10;;;;;;;;;;5031351;28;20050;-84
2021/07/20 14:07:10;;;;;;;1.10;1.10;;;;;;;;;;5031293;28;20025;-84
2021/07/20 14:09:36;;;;;;;1.10;1.10;;;;;;;;;;5029900;28;20041;-83
2021/07/20 14:12:03;;;;;;;1.20;1.20;;;;;;;;;;5031665;28;20055;-83
2021/07/20 14:14:29;;;;;;;1.10;1.10;;;;;;;;;;5030138;28;20452;-83
2021/07/20 14:16:55;;;;;;;1.10;1.10;;;;;;;;;;5031255;28;20029;-83
2021/07/20 14:19:22;;;;;;;1.20;1.20;;;;;;;;;;5031084;28;20200;-84
2021/07/20 14:21:49;;;;;;;1.20;1.20;;;;;;;;;;5030643;28;20472;-84
2021/07/20 14:24:16;;;;;;;1.20;1.20;;;;;;;;;;5031228;28;20025;-84
2021/07/20 14:26:52;;;;;;;1.20;1.20;;;;;;;;;;5031203;28;20029;-84
2021/07/20 14:29:20;;;;;;;1.30;1.30;;;;;;;;;;5029321;28;20033;-84
2021/07/20 14:31:46;;;;;;;1.20;1.20;;;;;;;;;;5030701;28;20025;-84
2021/07/20 14:34:14;;;;;;;1.20;1.20;;;;;;;;;;5030551;28;20041;-84
2021/07/20 14:36:46;;;;;;;1.30;1.30;;;;;;;;;;5031195;28;20022;-83
2021/07/20 14:39:27;;;;;;;1.30;1.30;;;;;;;;;;5030838;28;20063;-84
2021/07/20 14:42:12;;;;;;;1.30;1.30;;;;;;;;;;5030839;28;20057;-83
2021/07/20 14:45:01;;;;;;;1.30;1.30;;;;;;;;;;5029397;28;20049;-84
2021/07/20 14:47:33;;;;;;;1.30;1.30;;;;;;;;;;5025201;28;20167;-84
2021/07/20 14:50:00;;;;;;;1.20;1.20;;;;;;;;;;5029077;28;20452;-84
2021/07/20 14:52:35;;;;;;;1.20;1.20;;;;;;;;;;5030590;28;20025;-83
2021/07/20 14:55:11;;;;;;;1.20;1.20;;;;;;;;;;5030713;28;20022;-84
2021/07/20 14:57:42;;;;;;;1.20;1.20;;;;;;;;;;5030135;28;20035;-83
2021/07/20 15:00:09;;;;;;;1.20;1.20;;;;;;;;;;5030558;28;20033;-82
2021/07/20 15:02:35;;;;;;;1.20;1.20;;;;;;;;;;5030478;28;20486;-83